Time,TemperatureF,DewpointF,PressureIn,WindDirection,WindDirectionDegrees,WindSpeedMPH,WindSpeedGustMPH,Humidity,HourlyPrecipIn,Conditions,Clouds,dailyrainin,SoftwareType,DateUTC
2013-02-28 00:01:00,13.6,1.2,30.05,SE,135,0.0,0.0,57,0.00,,FEW220,0.00,VWS V13.01,2013-02-28 07:01:00,
2013-02-28 00:06:00,13.6,1.2,30.05,SE,135,0.0,0.0,57,0.00,,FEW220,0.00,VWS V13.01,2013-02-28 07:06:00,
2013-02-28 00:11:00,13.5,1.1,30.05,SE,135,0.0,0.0,57,0.00,,FEW220,0.00,VWS V13.01,2013-02-28 07:11:00,
2013-02-28 00:16:00,13.3,0.9,30.05,SE,135,0.0,0.0,57,0.00,,FEW220,0.00,VWS V13.01,2013-02-28 07:16:00,
2013-02-28 00:21:00,13.1,0.7,30.05,SE,135,0.0,0.0,57,0.00,,FEW220,0.00,VWS V13.01,2013-02-28 07:21:00,
2013-02-28 00:26:00,12.9,0.6,30.05,SE,135,0.0,0.0,57,0.00,,FEW220,0.00,VWS V13.01,2013-02-28 07:26:00,
2013-02-28 00:31:00,12.7,0.4,30.05,SE,135,0.0,0.0,57,0.00,,FEW220,0.00,VWS V13.01,2013-02-28 07:31:00,
2013-02-28 00:36:00,12.7,0.4,30.05,SE,135,0.0,0.0,57,0.00,,FEW220,0.00,VWS V13.01,2013-02-28 07:36:00,
2013-02-28 00:41:00,12.6,0.2,30.05,SE,136,0.0,0.0,57,0.00,,FEW220,0.00,VWS V13.01,2013-02-28 07:41:00,
2013-02-28 00:46:00,12.6,0.2,30.05,SE,136,0.0,0.0,57,0.00,,FEW220,0.00,VWS V13.01,2013-02-28 07:46:00,
2013-02-28 00:51:00,12.6,0.2,30.05,SE,135,0.0,0.0,57,0.00,,FEW220,0.00,VWS V13.01,2013-02-28 07:51:00,
2013-02-28 00:56:00,12.2,-0.1,30.05,SE,135,0.0,0.0,57,0.00,,FEW220,0.00,VWS V13.01,2013-02-28 07:56:00,
2013-02-28 01:01:00,12.0,-0.3,30.05,SE,135,0.0,0.0,57,0.00,,FEW220,0.00,VWS V13.01,2013-02-28 08:01:00,
2013-02-28 01:06:00,12.0,-0.3,30.05,SE,136,0.0,0.0,57,0.00,,FEW220,0.00,VWS V13.01,2013-02-28 08:06:00,
2013-02-28 01:11:00,11.8,-0.4,30.05,SE,135,0.0,0.0,57,0.00,,FEW220,0.00,VWS V13.01,2013-02-28 08:11:00,
2013-02-28 01:16:00,11.7,-0.6,30.05,SE,136,0.0,0.0,57,0.00,,FEW220,0.00,VWS V13.01,2013-02-28 08:16:00,
2013-02-28 01:21:00,11.7,-0.6,30.05,SE,135,0.0,0.0,57,0.00,,FEW220,0.00,VWS V13.01,2013-02-28 08:21:00,
2013-02-28 01:26:00,11.3,-1.0,30.08,SE,136,0.0,0.0,57,0.00,,FEW220,0.00,VWS V13.01,2013-02-28 08:26:00,
2013-02-28 01:31:00,11.3,-1.0,30.08,SE,135,0.0,0.0,57,0.00,,FEW220,0.00,VWS V13.01,2013-02-28 08:31:00,
2013-02-28 01:36:00,11.3,-1.0,30.08,SE,135,2.2,4.0,57,0.00,,FEW220,0.00,VWS V13.01,2013-02-28 08:36:00,
2013-02-28 01:41:00,11.3,-1.0,30.08,South,170,4.9,5.8,57,0.00,,FEW220,0.00,VWS V13.01,2013-02-28 08:41:00,
2013-02-28 01:46:00,11.5,-0.8,30.08,South,179,2.7,3.6,57,0.00,,FEW220,0.00,VWS V13.01,2013-02-28 08:46:00,
2013-02-28 01:51:00,11.5,-0.8,30.08,SSE,160,2.2,4.0,57,0.00,,FEW220,0.00,VWS V13.01,2013-02-28 08:51:00,
2013-02-28 01:56:00,11.3,-1.0,30.08,SSE,156,0.0,4.0,57,0.00,,FEW220,0.00,VWS V13.01,2013-02-28 08:56:00,
2013-02-28 02:01:00,11.3,-1.0,30.08,SSE,156,2.2,2.2,57,0.00,,FEW220,0.00,VWS V13.01,2013-02-28 09:01:00,
2013-02-28 02:06:00,11.3,-1.0,30.08,SSE,156,2.7,3.6,57,0.00,,FEW220,0.00,VWS V13.01,2013-02-28 09:06:00,
2013-02-28 02:11:00,11.1,-1.1,30.05,SSE,154,0.0,4.0,57,0.00,,FEW220,0.00,VWS V13.01,2013-02-28 09:11:00,
2013-02-28 02:16:00,11.1,-1.1,30.05,SSE,156,2.2,3.1,57,0.00,,SCT220,0.00,VWS V13.01,2013-02-28 09:16:00,
2013-02-28 02:21:00,11.1,-1.1,30.05,SSE,156,0.0,3.1,57,0.00,,SCT220,0.00,VWS V13.01,2013-02-28 09:21:00,
2013-02-28 02:26:00,10.9,-1.3,30.08,SSW,201,0.0,3.6,57,0.00,,SCT220,0.00,VWS V13.01,2013-02-28 09:26:00,
2013-02-28 02:31:00,10.8,-1.5,30.08,SSW,200,0.0,0.0,57,0.00,,SCT220,0.00,VWS V13.01,2013-02-28 09:31:00,
2013-02-28 02:36:00,10.8,-1.5,30.08,SSW,209,2.2,4.0,57,0.00,,SCT220,0.00,VWS V13.01,2013-02-28 09:36:00,
2013-02-28 02:41:00,10.8,-1.5,30.08,SSW,213,2.7,4.0,57,0.00,,SCT220,0.00,VWS V13.01,2013-02-28 09:41:00,
2013-02-28 02:46:00,10.8,-1.5,30.08,South,181,4.0,4.0,57,0.00,,SCT220,0.00,VWS V13.01,2013-02-28 09:46:00,
2013-02-28 02:51:00,10.8,-1.5,30.08,SSE,155,2.7,4.0,57,0.00,,SCT220,0.00,VWS V13.01,2013-02-28 09:51:00,
2013-02-28 02:56:00,10.8,-1.5,30.05,SE,125,2.7,4.0,57,0.00,,SCT220,0.00,VWS V13.01,2013-02-28 09:56:00,
2013-02-28 03:01:00,10.8,-1.5,30.05,SE,128,2.7,3.1,57,0.00,,SCT220,0.00,VWS V13.01,2013-02-28 10:01:00,
2013-02-28 03:07:00,10.6,-1.6,30.05,SE,128,0.0,3.1,57,0.00,,SCT220,0.00,VWS V13.01,2013-02-28 10:07:00,
2013-02-28 03:12:00,10.4,-1.8,30.05,SE,129,0.0,3.1,57,0.00,,SCT220,0.00,VWS V13.01,2013-02-28 10:12:00,
2013-02-28 03:17:00,10.2,-2.0,30.05,SE,128,0.0,0.0,57,0.00,,SCT220,0.00,VWS V13.01,2013-02-28 10:17:00,
2013-02-28 03:22:00,10.2,-2.0,30.05,SE,129,0.0,2.2,57,0.00,,SCT220,0.00,VWS V13.01,2013-02-28 10:22:00,
2013-02-28 03:27:00,10.2,-2.0,30.05,South,170,2.2,3.6,57,0.00,,SCT220,0.00,VWS V13.01,2013-02-28 10:27:00,
2013-02-28 03:32:00,10.2,-2.0,30.05,South,170,0.0,0.0,57,0.00,,SCT220,0.00,VWS V13.01,2013-02-28 10:32:00,
2013-02-28 03:37:00,10.0,-2.1,30.05,South,191,2.7,3.1,57,0.00,,SCT220,0.00,VWS V13.01,2013-02-28 10:37:00,
2013-02-28 03:42:00,10.0,-2.1,30.05,SSW,207,2.7,3.6,57,0.00,,SCT220,0.00,VWS V13.01,2013-02-28 10:42:00,
2013-02-28 03:47:00,10.2,-2.0,30.05,SW,214,3.6,4.0,57,0.00,,SCT220,0.00,VWS V13.01,2013-02-28 10:47:00,
2013-02-28 03:52:00,10.2,-2.0,30.05,SSW,203,0.0,4.9,57,0.00,,SCT220,0.00,VWS V13.01,2013-02-28 10:52:00,
2013-02-28 03:57:00,10.2,-2.0,30.05,SSW,199,0.0,4.9,57,0.00,,SCT220,0.00,VWS V13.01,2013-02-28 10:57:00,
2013-02-28 04:02:00,10.2,-2.0,30.05,South,191,0.0,0.0,57,0.00,,FEW220,0.00,VWS V13.01,2013-02-28 11:02:00,
2013-02-28 04:07:00,10.2,-2.0,30.05,SW,220,2.7,3.6,57,0.00,,FEW220,0.00,VWS V13.01,2013-02-28 11:07:00,
2013-02-28 04:12:00,10.2,-2.0,30.05,SW,221,0.0,3.6,57,0.00,,FEW220,0.00,VWS V13.01,2013-02-28 11:12:00,
2013-02-28 04:17:00,10.2,-2.0,30.05,SW,217,2.7,2.7,57,0.00,,FEW220,0.00,VWS V13.01,2013-02-28 11:17:00,
2013-02-28 04:22:00,10.2,-2.0,30.05,SW,215,0.0,3.6,57,0.00,,FEW220,0.00,VWS V13.01,2013-02-28 11:22:00,
2013-02-28 04:27:00,10.0,-2.1,30.08,SW,215,0.0,3.6,57,0.00,,FEW220,0.00,VWS V13.01,2013-02-28 11:27:00,
2013-02-28 04:32:00,10.0,-2.1,30.08,SW,221,2.2,3.1,57,0.00,,FEW220,0.00,VWS V13.01,2013-02-28 11:32:00,
2013-02-28 04:37:00,10.2,-2.0,30.08,SW,221,0.0,3.1,57,0.00,,FEW220,0.00,VWS V13.01,2013-02-28 11:37:00,
2013-02-28 04:42:00,10.0,-2.1,30.08,SW,221,0.0,3.1,57,0.00,,FEW220,0.00,VWS V13.01,2013-02-28 11:42:00,
2013-02-28 04:47:00,10.0,-2.1,30.08,SW,221,0.0,2.2,57,0.00,,FEW220,0.00,VWS V13.01,2013-02-28 11:47:00,
2013-02-28 04:52:00,10.0,-2.1,30.08,SW,221,0.0,2.7,57,0.00,,FEW220,0.00,VWS V13.01,2013-02-28 11:52:00,
2013-02-28 04:57:00,9.9,-2.3,30.08,SW,221,0.0,2.7,57,0.00,,FEW220,0.00,VWS V13.01,2013-02-28 11:57:00,
2013-02-28 05:02:00,9.7,-2.5,30.08,SW,221,0.0,0.0,57,0.00,,FEW220,0.00,VWS V13.01,2013-02-28 12:02:00,
2013-02-28 05:07:00,9.7,-2.5,30.08,SW,221,0.0,2.7,57,0.00,,FEW220,0.00,VWS V13.01,2013-02-28 12:07:00,
2013-02-28 05:12:00,9.5,-2.7,30.08,SW,221,0.0,2.7,57,0.00,,FEW220,0.00,VWS V13.01,2013-02-28 12:12:00,
2013-02-28 05:17:00,9.5,-2.7,30.08,SW,221,0.0,0.0,57,0.00,,FEW220,0.00,VWS V13.01,2013-02-28 12:17:00,
2013-02-28 05:22:00,9.5,-2.7,30.08,SW,220,0.0,2.7,57,0.00,,FEW220,0.00,VWS V13.01,2013-02-28 12:22:00,
2013-02-28 05:27:00,9.7,-2.5,30.08,SW,221,0.0,2.7,57,0.00,,FEW220,0.00,VWS V13.01,2013-02-28 12:27:00,
2013-02-28 05:32:00,9.5,-2.7,30.08,SW,221,0.0,0.0,57,0.00,,FEW220,0.00,VWS V13.01,2013-02-28 12:32:00,
2013-02-28 05:37:00,9.5,-2.7,30.08,SW,221,0.0,0.0,57,0.00,,FEW220,0.00,VWS V13.01,2013-02-28 12:37:00,
2013-02-28 05:42:00,9.5,-2.7,30.08,SW,221,0.0,0.0,57,0.00,,FEW220,0.00,VWS V13.01,2013-02-28 12:42:00,
2013-02-28 05:47:00,9.5,-2.7,30.08,SW,221,0.0,0.0,57,0.00,,FEW220,0.00,VWS V13.01,2013-02-28 12:47:00,
2013-02-28 05:52:00,9.5,-2.7,30.08,SW,221,0.0,0.0,57,0.00,,FEW220,0.00,VWS V13.01,2013-02-28 12:52:00,
2013-02-28 05:57:00,9.3,-2.8,30.08,SW,221,0.0,0.0,57,0.00,,FEW220,0.00,VWS V13.01,2013-02-28 12:57:00,
2013-02-28 06:02:00,9.3,-2.8,30.08,SW,220,0.0,2.7,57,0.00,,FEW220,0.00,VWS V13.01,2013-02-28 13:02:00,
2013-02-28 06:07:00,9.5,-2.7,30.08,SW,220,0.0,3.1,57,0.00,,FEW220,0.00,VWS V13.01,2013-02-28 13:07:00,
2013-02-28 06:12:00,9.7,-2.5,30.08,SSW,195,0.0,5.4,57,0.00,,FEW220,0.00,VWS V13.01,2013-02-28 13:12:00,
2013-02-28 06:17:00,10.0,-2.1,30.08,South,182,0.0,3.1,57,0.00,,FEW220,0.00,VWS V13.01,2013-02-28 13:17:00,
2013-02-28 06:22:00,10.4,-1.8,30.08,ESE,119,3.1,3.6,57,0.00,,FEW220,0.00,VWS V13.01,2013-02-28 13:22:00,
2013-02-28 06:27:00,10.4,-1.8,30.08,SE,133,2.7,3.6,57,0.00,,FEW220,0.00,VWS V13.01,2013-02-28 13:27:00,
2013-02-28 06:32:00,10.6,-1.6,30.08,SSE,149,2.7,4.0,57,0.00,,FEW220,0.00,VWS V13.01,2013-02-28 13:32:00,
2013-02-28 06:37:00,10.8,-1.5,30.08,South,176,0.0,4.0,57,0.00,,FEW220,0.00,VWS V13.01,2013-02-28 13:37:00,
2013-02-28 06:42:00,10.9,-1.3,30.08,South,182,0.0,4.0,57,0.00,,FEW220,0.00,VWS V13.01,2013-02-28 13:42:00,
2013-02-28 06:47:00,11.1,-1.1,30.08,SSW,199,2.7,4.9,57,0.00,,FEW220,0.00,VWS V13.01,2013-02-28 13:47:00,
2013-02-28 06:52:00,11.7,-0.6,30.08,SE,140,3.1,7.6,57,0.00,,FEW220,0.00,VWS V13.01,2013-02-28 13:52:00,
2013-02-28 06:57:00,12.2,-0.1,30.08,SW,216,2.7,7.6,57,0.00,,FEW220,0.00,VWS V13.01,2013-02-28 13:57:00,
2013-02-28 07:02:00,12.7,0.4,30.08,SSE,165,2.7,4.0,57,0.00,,FEW220,0.00,VWS V13.01,2013-02-28 14:02:00,
2013-02-28 07:08:00,12.9,0.6,30.08,SSE,157,2.7,4.0,57,0.00,,FEW220,0.00,VWS V13.01,2013-02-28 14:08:00,
2013-02-28 07:13:00,13.5,1.1,30.08,SSW,197,4.0,4.0,57,0.00,,FEW220,0.00,VWS V13.01,2013-02-28 14:13:00,
2013-02-28 07:18:00,13.8,1.4,30.08,SSW,196,4.0,4.0,57,0.00,,FEW220,0.00,VWS V13.01,2013-02-28 14:18:00,
2013-02-28 07:23:00,14.4,1.5,30.08,SSW,210,0.0,6.3,56,0.00,,FEW220,0.00,VWS V13.01,2013-02-28 14:23:00,
2013-02-28 07:28:00,14.9,1.7,30.08,South,175,0.0,6.3,55,0.00,,FEW220,0.00,VWS V13.01,2013-02-28 14:28:00,
2013-02-28 07:33:00,15.3,2.0,30.08,SSE,156,3.1,3.6,55,0.00,,FEW220,0.00,VWS V13.01,2013-02-28 14:33:00,
2013-02-28 07:38:00,16.0,2.3,30.08,SSE,167,3.1,5.4,54,0.00,,FEW220,0.00,VWS V13.01,2013-02-28 14:38:00,
2013-02-28 07:43:00,16.5,2.8,30.08,SSE,153,4.9,5.4,54,0.00,,FEW220,0.00,VWS V13.01,2013-02-28 14:43:00,
2013-02-28 07:48:00,17.2,3.5,30.08,SSW,199,2.2,5.4,54,0.00,,FEW220,0.00,VWS V13.01,2013-02-28 14:48:00,
2013-02-28 07:53:00,18.0,3.7,30.08,South,172,3.1,5.4,53,0.00,,FEW220,0.00,VWS V13.01,2013-02-28 14:53:00,
2013-02-28 07:58:00,18.7,4.4,30.08,SSE,165,4.0,5.4,53,0.00,,FEW220,0.00,VWS V13.01,2013-02-28 14:58:00,
2013-02-28 08:03:00,19.2,4.9,30.08,South,176,3.1,5.4,53,0.00,,FEW220,0.00,VWS V13.01,2013-02-28 15:03:00,
2013-02-28 08:08:00,20.1,4.9,30.08,SE,145,5.8,6.3,51,0.00,,FEW220,0.00,VWS V13.01,2013-02-28 15:08:00,
2013-02-28 08:13:00,20.5,5.2,30.08,SSE,154,0.0,6.3,51,0.00,,FEW220,0.00,VWS V13.01,2013-02-28 15:13:00,
2013-02-28 08:18:00,21.2,5.5,30.08,South,171,2.2,4.9,50,0.00,,FEW220,0.00,VWS V13.01,2013-02-28 15:18:00,
2013-02-28 08:23:00,21.9,5.7,30.08,SE,145,3.1,5.8,49,0.00,,FEW220,0.00,VWS V13.01,2013-02-28 15:23:00,
2013-02-28 08:28:00,22.6,6.4,30.08,SSE,156,3.1,5.8,49,0.00,,FEW220,0.00,VWS V13.01,2013-02-28 15:28:00,
2013-02-28 08:34:00,23.4,6.1,30.08,South,172,0.0,4.0,47,0.00,,FEW220,0.00,VWS V13.01,2013-02-28 15:34:00,
2013-02-28 08:39:00,24.1,6.8,30.08,SSE,161,5.4,5.4,47,0.00,,FEW220,0.00,VWS V13.01,2013-02-28 15:39:00,
2013-02-28 08:44:00,24.6,7.3,30.08,SSE,159,2.2,5.8,47,0.00,,FEW220,0.00,VWS V13.01,2013-02-28 15:44:00,
2013-02-28 08:49:00,25.3,7.5,30.08,SSE,163,3.1,3.1,46,0.00,,FEW220,0.00,VWS V13.01,2013-02-28 15:49:00,
2013-02-28 08:54:00,25.9,7.5,30.08,SSE,168,3.1,4.9,45,0.00,,FEW220,0.00,VWS V13.01,2013-02-28 15:54:00,
2013-02-28 08:59:00,26.8,8.3,30.08,SE,139,4.0,4.9,45,0.00,,FEW220,0.00,VWS V13.01,2013-02-28 15:59:00,
2013-02-28 09:04:00,27.5,8.5,30.08,South,172,3.6,4.9,44,0.00,,FEW220,0.00,VWS V13.01,2013-02-28 16:04:00,
2013-02-28 09:09:00,28.0,8.9,30.08,ESE,122,3.1,5.4,44,0.00,,FEW220,0.00,VWS V13.01,2013-02-28 16:09:00,
2013-02-28 09:14:00,28.6,8.9,30.08,SSE,165,2.2,5.4,43,0.00,,FEW220,0.00,VWS V13.01,2013-02-28 16:14:00,
2013-02-28 09:19:00,29.3,9.6,30.08,SSE,152,0.0,3.6,43,0.00,,SCT220,0.00,VWS V13.01,2013-02-28 16:19:00,
2013-02-28 09:24:00,29.8,9.6,30.08,South,185,2.7,5.8,42,0.00,,SCT220,0.00,VWS V13.01,2013-02-28 16:24:00,
2013-02-28 09:29:00,30.4,9.5,30.08,SSW,207,3.1,5.8,41,0.00,,SCT220,0.00,VWS V13.01,2013-02-28 16:29:00,
2013-02-28 09:34:00,30.9,10.0,30.08,SSW,208,2.7,4.0,41,0.00,,SCT220,0.00,VWS V13.01,2013-02-28 16:34:00,
2013-02-28 09:39:00,31.5,10.5,30.08,SW,232,6.3,6.3,41,0.00,,SCT220,0.00,VWS V13.01,2013-02-28 16:39:00,
2013-02-28 09:44:00,32.0,11.0,30.08,ESE,114,2.7,6.3,41,0.00,,SCT220,0.00,VWS V13.01,2013-02-28 16:44:00,
2013-02-28 09:49:00,32.5,11.5,30.08,WSW,252,3.6,5.8,41,0.00,,SCT220,0.00,VWS V13.01,2013-02-28 16:49:00,
2013-02-28 09:54:00,33.1,12.0,30.08,ESE,118,2.7,5.8,41,0.00,,SCT220,0.00,VWS V13.01,2013-02-28 16:54:00,
2013-02-28 09:59:00,33.3,11.6,30.08,SW,228,3.6,5.8,40,0.00,,SCT220,0.00,VWS V13.01,2013-02-28 16:59:00,
2013-02-28 10:04:00,33.8,10.9,30.08,WSW,242,3.6,5.4,38,0.00,,SCT220,0.00,VWS V13.01,2013-02-28 17:04:00,
2013-02-28 10:09:00,34.0,11.6,30.08,WNW,287,5.8,6.3,39,0.00,,SCT220,0.00,VWS V13.01,2013-02-28 17:09:00,
2013-02-28 10:14:00,34.7,12.9,30.08,WNW,283,2.7,6.3,40,0.00,,SCT220,0.00,VWS V13.01,2013-02-28 17:14:00,
2013-02-28 10:19:00,35.2,13.4,30.08,SSW,207,4.0,4.0,40,0.00,,SCT220,0.00,VWS V13.01,2013-02-28 17:19:00,
2013-02-28 10:25:00,35.4,13.5,30.08,SSW,204,0.0,4.9,40,0.00,,SCT220,0.00,VWS V13.01,2013-02-28 17:25:00,
2013-02-28 10:30:00,35.6,13.1,30.08,SW,234,0.0,4.9,39,0.00,,SCT220,0.00,VWS V13.01,2013-02-28 17:30:00,
2013-02-28 10:35:00,36.0,13.4,30.08,SW,225,3.6,4.9,39,0.00,,SCT220,0.00,VWS V13.01,2013-02-28 17:35:00,
2013-02-28 10:40:00,36.3,13.8,30.08,SW,217,4.0,4.9,39,0.00,,SCT220,0.00,VWS V13.01,2013-02-28 17:40:00,
2013-02-28 10:45:00,36.5,13.9,30.08,West,274,0.0,4.9,39,0.00,,SCT220,0.00,VWS V13.01,2013-02-28 17:45:00,
2013-02-28 10:50:00,37.4,13.5,30.08,SW,227,5.4,5.8,37,0.00,,SCT220,0.00,VWS V13.01,2013-02-28 17:50:00,
2013-02-28 10:55:00,37.9,13.4,30.08,SW,218,3.6,6.3,36,0.00,,SCT220,0.00,VWS V13.01,2013-02-28 17:55:00,
2013-02-28 11:00:00,37.6,13.1,30.08,WSW,245,2.2,6.3,36,0.00,,SCT220,0.00,VWS V13.01,2013-02-28 18:00:00,
2013-02-28 11:05:00,38.1,13.5,30.08,WSW,258,3.6,4.0,36,0.00,,BKN220,0.00,VWS V13.01,2013-02-28 18:05:00,
2013-02-28 11:10:00,38.8,12.9,30.08,SW,222,3.6,5.4,34,0.00,,BKN220,0.00,VWS V13.01,2013-02-28 18:10:00,
2013-02-28 11:15:00,39.7,13.0,30.08,WSW,252,4.0,5.8,33,0.00,,BKN220,0.00,VWS V13.01,2013-02-28 18:15:00,
2013-02-28 11:20:00,39.9,13.8,30.08,WSW,239,2.2,4.0,34,0.00,,BKN220,0.00,VWS V13.01,2013-02-28 18:20:00,
2013-02-28 11:25:00,40.3,13.5,30.08,WSW,240,2.7,4.9,33,0.00,,BKN220,0.00,VWS V13.01,2013-02-28 18:25:00,
2013-02-28 11:30:00,40.8,14.0,30.08,SW,226,2.7,4.9,33,0.00,,BKN220,0.00,VWS V13.01,2013-02-28 18:30:00,
2013-02-28 11:35:00,41.0,14.8,30.08,WSW,239,2.7,3.1,34,0.00,,BKN220,0.00,VWS V13.01,2013-02-28 18:35:00,
2013-02-28 11:40:00,41.4,15.1,30.08,SSW,207,4.5,4.5,34,0.00,,BKN220,0.00,VWS V13.01,2013-02-28 18:40:00,
2013-02-28 11:45:00,41.5,13.9,30.08,South,175,3.1,6.3,32,0.00,,BKN220,0.00,VWS V13.01,2013-02-28 18:45:00,
2013-02-28 11:50:00,41.0,15.5,30.08,ESE,110,0.0,3.6,35,0.00,,BKN220,0.00,VWS V13.01,2013-02-28 18:50:00,
2013-02-28 11:55:00,41.0,16.7,30.08,WNW,284,2.7,3.6,37,0.00,,BKN220,0.00,VWS V13.01,2013-02-28 18:55:00,
2013-02-28 12:00:00,41.0,16.1,30.05,NW,322,6.3,6.3,36,0.00,,BKN220,0.00,VWS V13.01,2013-02-28 19:00:00,
2013-02-28 12:05:00,41.0,16.7,30.05,West,266,7.2,8.1,37,0.00,,BKN220,0.00,VWS V13.01,2013-02-28 19:05:00,
2013-02-28 12:10:00,41.5,17.8,30.05,NNW,340,3.6,8.7,38,0.00,,BKN220,0.00,VWS V13.01,2013-02-28 19:10:00,
2013-02-28 12:15:00,41.9,18.2,30.05,WNW,293,3.6,4.0,38,0.00,,BKN220,0.00,VWS V13.01,2013-02-28 19:15:00,
2013-02-28 12:20:00,42.3,17.2,30.05,West,263,10.1,11.0,36,0.00,,BKN220,0.00,VWS V13.01,2013-02-28 19:20:00,
2013-02-28 12:25:00,43.0,18.5,30.05,WNW,282,4.9,11.0,37,0.00,,BKN220,0.00,VWS V13.01,2013-02-28 19:25:00,
2013-02-28 12:30:00,43.2,19.3,30.05,North,353,3.6,3.6,38,0.00,,BKN220,0.00,VWS V13.01,2013-02-28 19:30:00,
2013-02-28 12:35:00,43.3,19.5,30.05,WNW,289,11.9,11.9,38,0.00,,BKN220,0.00,VWS V13.01,2013-02-28 19:35:00,
2013-02-28 12:40:00,43.3,18.2,30.05,NW,311,5.4,13.2,36,0.00,,BKN220,0.00,VWS V13.01,2013-02-28 19:40:00,
2013-02-28 12:45:00,43.9,19.9,30.05,NW,306,8.7,13.2,38,0.00,,BKN220,0.00,VWS V13.01,2013-02-28 19:45:00,
2013-02-28 12:50:00,44.6,20.6,30.05,WNW,283,7.6,11.0,38,0.00,,BKN220,0.00,VWS V13.01,2013-02-28 19:50:00,
2013-02-28 12:55:00,44.8,20.7,30.05,WNW,283,5.4,11.0,38,0.00,,BKN220,0.00,VWS V13.01,2013-02-28 19:55:00,
2013-02-28 13:00:00,44.2,20.3,30.02,NW,305,12.8,16.8,38,0.00,,BKN220,0.00,VWS V13.01,2013-02-28 20:00:00,
2013-02-28 13:05:00,43.7,19.8,30.02,WSW,237,8.3,16.8,38,0.00,,BKN220,0.00,VWS V13.01,2013-02-28 20:05:00,
2013-02-28 13:10:00,43.9,20.5,30.02,NW,305,8.1,16.8,39,0.00,,BKN220,0.00,VWS V13.01,2013-02-28 20:10:00,
2013-02-28 13:15:00,43.7,19.8,30.02,WSW,240,14.5,15.4,38,0.00,,BKN220,0.00,VWS V13.01,2013-02-28 20:15:00,
2013-02-28 13:20:00,43.7,19.8,30.02,NW,307,5.8,17.4,38,0.00,,BKN220,0.00,VWS V13.01,2013-02-28 20:20:00,
2013-02-28 13:25:00,43.7,19.8,30.02,NW,305,11.0,17.4,38,0.00,,BKN220,0.00,VWS V13.01,2013-02-28 20:25:00,
2013-02-28 13:30:00,43.3,20.1,30.02,WNW,301,10.5,10.5,39,0.00,,BKN220,0.00,VWS V13.01,2013-02-28 20:30:00,
2013-02-28 13:35:00,43.2,19.9,30.02,WSW,240,6.3,13.2,39,0.00,,BKN220,0.00,VWS V13.01,2013-02-28 20:35:00,
2013-02-28 13:40:00,42.6,19.4,30.02,WNW,303,13.2,14.1,39,0.00,,BKN220,0.00,VWS V13.01,2013-02-28 20:40:00,
2013-02-28 13:45:00,42.1,18.3,30.02,West,275,9.6,17.0,38,0.00,,BKN220,0.00,VWS V13.01,2013-02-28 20:45:00,
2013-02-28 13:50:00,42.1,19.5,30.02,West,266,10.1,17.0,40,0.00,,BKN220,0.00,VWS V13.01,2013-02-28 20:50:00,
2013-02-28 13:55:00,41.9,18.8,30.02,West,281,10.5,17.0,39,0.00,,BKN220,0.00,VWS V13.01,2013-02-28 20:55:00,
2013-02-28 14:00:00,41.7,18.6,30.02,West,271,6.3,8.3,39,0.00,,BKN220,0.00,VWS V13.01,2013-02-28 21:00:00,
2013-02-28 14:05:00,41.2,18.1,30.02,NW,307,8.7,15.4,39,0.00,,BKN220,0.00,VWS V13.01,2013-02-28 21:05:00,
2013-02-28 14:10:00,41.2,18.1,30.02,WNW,296,5.4,16.8,39,0.00,,BKN220,0.00,VWS V13.01,2013-02-28 21:10:00,
2013-02-28 14:15:00,41.0,18.5,29.99,NW,307,10.5,10.5,40,0.00,,BKN220,0.00,VWS V13.01,2013-02-28 21:15:00,
2013-02-28 14:20:00,40.6,18.2,29.99,West,276,7.6,11.0,40,0.00,,BKN220,0.00,VWS V13.01,2013-02-28 21:20:00,
2013-02-28 14:25:00,41.0,18.5,29.99,WNW,292,5.4,11.0,40,0.00,,BKN220,0.00,VWS V13.01,2013-02-28 21:25:00,
2013-02-28 14:30:00,40.6,18.2,30.02,NW,313,10.1,11.0,40,0.00,,BKN220,0.00,VWS V13.01,2013-02-28 21:30:00,
2013-02-28 14:35:00,40.3,17.3,30.02,West,272,14.5,17.4,39,0.00,,BKN220,0.00,VWS V13.01,2013-02-28 21:35:00,
2013-02-28 14:40:00,40.1,17.1,30.02,NW,309,12.3,17.4,39,0.00,,BKN220,0.00,VWS V13.01,2013-02-28 21:40:00,
2013-02-28 14:45:00,40.5,18.1,30.02,WSW,244,6.3,8.3,40,0.00,,BKN220,0.00,VWS V13.01,2013-02-28 21:45:00,
2013-02-28 14:50:00,40.6,17.6,30.02,NW,315,6.3,15.9,39,0.00,,BKN220,0.00,VWS V13.01,2013-02-28 21:50:00,
2013-02-28 14:56:00,40.3,17.3,30.02,WNW,299,13.2,17.4,39,0.00,,BKN220,0.00,VWS V13.01,2013-02-28 21:56:00,
2013-02-28 15:00:00,40.5,16.9,29.99,WNW,296,11.0,12.8,38,0.00,,BKN220,0.00,VWS V13.01,2013-02-28 22:00:00,
2013-02-28 15:06:00,40.6,17.6,29.99,NW,304,11.9,22.8,39,0.00,,BKN220,0.00,VWS V13.01,2013-02-28 22:06:00,
2013-02-28 15:11:00,40.5,16.9,29.99,WNW,293,11.0,22.8,38,0.00,,BKN220,0.00,VWS V13.01,2013-02-28 22:11:00,
2013-02-28 15:16:00,40.3,14.8,30.02,WNW,292,7.6,21.5,35,0.00,,BKN220,0.00,VWS V13.01,2013-02-28 22:16:00,
2013-02-28 15:21:00,39.7,14.3,30.02,WNW,285,25.5,25.5,35,0.00,,BKN220,0.00,VWS V13.01,2013-02-28 22:21:00,
2013-02-28 15:26:00,39.9,14.5,30.02,NW,308,10.5,25.5,35,0.00,,BKN220,0.00,VWS V13.01,2013-02-28 22:26:00,
2013-02-28 15:31:00,39.9,16.4,30.02,WSW,249,8.3,8.7,38,0.00,,BKN220,0.00,VWS V13.01,2013-02-28 22:31:00,
2013-02-28 15:36:00,39.9,14.5,30.02,WNW,290,14.1,15.9,35,0.00,,BKN220,0.00,VWS V13.01,2013-02-28 22:36:00,
2013-02-28 15:41:00,39.4,13.4,30.02,NW,309,13.2,24.2,34,0.00,,BKN220,0.00,VWS V13.01,2013-02-28 22:41:00,
2013-02-28 15:46:00,39.4,12.7,30.02,West,281,15.0,21.0,33,0.00,,BKN220,0.00,VWS V13.01,2013-02-28 22:46:00,
2013-02-28 15:51:00,39.6,12.9,30.02,NW,305,12.8,21.0,33,0.00,,BKN220,0.00,VWS V13.01,2013-02-28 22:51:00,
2013-02-28 15:56:00,39.6,13.5,30.02,WNW,300,15.4,21.0,34,0.00,,BKN220,0.00,VWS V13.01,2013-02-28 22:56:00,
2013-02-28 16:01:00,39.7,14.3,30.02,NW,312,8.3,8.3,35,0.00,,BKN220,0.00,VWS V13.01,2013-02-28 23:01:00,
2013-02-28 16:06:00,39.6,13.5,30.02,WNW,285,7.6,17.4,34,0.00,,BKN220,0.00,VWS V13.01,2013-02-28 23:06:00,
2013-02-28 16:11:00,39.6,12.9,30.02,NW,311,17.0,18.8,33,0.00,,BKN220,0.00,VWS V13.01,2013-02-28 23:11:00,
2013-02-28 16:16:00,39.6,12.9,30.02,NW,304,5.8,12.3,33,0.00,,BKN220,0.00,VWS V13.01,2013-02-28 23:16:00,
2013-02-28 16:21:00,40.1,13.3,30.02,NW,321,4.0,23.3,33,0.00,,BKN220,0.00,VWS V13.01,2013-02-28 23:21:00,
2013-02-28 16:26:00,40.3,13.5,30.02,NW,320,10.5,23.3,33,0.00,,BKN220,0.00,VWS V13.01,2013-02-28 23:26:00,
2013-02-28 16:31:00,39.9,13.2,30.02,West,265,12.8,13.2,33,0.00,,BKN220,0.00,VWS V13.01,2013-02-28 23:31:00,
2013-02-28 16:36:00,39.9,12.5,30.02,WNW,291,10.5,15.4,32,0.00,,BKN220,0.00,VWS V13.01,2013-02-28 23:36:00,
2013-02-28 16:41:00,39.9,12.5,30.02,NNW,332,15.4,19.2,32,0.00,,BKN220,0.00,VWS V13.01,2013-02-28 23:41:00,
2013-02-28 16:46:00,39.6,12.1,30.02,WNW,295,8.3,11.0,32,0.00,,BKN220,0.00,VWS V13.01,2013-02-28 23:46:00,
2013-02-28 16:51:00,39.2,12.5,30.02,WNW,291,10.5,12.3,33,0.00,,BKN220,0.00,VWS V13.01,2013-02-28 23:51:00,
2013-02-28 16:56:00,39.0,11.7,30.02,NW,313,7.6,12.3,32,0.00,,BKN220,0.00,VWS V13.01,2013-02-28 23:56:00,
2013-02-28 17:01:00,38.8,11.5,30.02,WNW,291,7.6,12.3,32,0.00,,BKN220,0.00,VWS V13.01,2013-03-01 00:01:00,
2013-02-28 17:06:00,38.5,11.2,30.02,WNW,296,8.7,12.8,32,0.00,,BKN220,0.00,VWS V13.01,2013-03-01 00:06:00,
2013-02-28 17:11:00,38.3,11.0,30.02,NW,325,4.0,14.1,32,0.00,,BKN220,0.00,VWS V13.01,2013-03-01 00:11:00,
2013-02-28 17:16:00,37.9,10.7,30.02,West,278,8.1,12.8,32,0.00,,BKN220,0.00,VWS V13.01,2013-03-01 00:16:00,
2013-02-28 17:21:00,37.9,10.7,30.02,North,349,5.8,12.8,32,0.00,,BKN220,0.00,VWS V13.01,2013-03-01 00:21:00,
2013-02-28 17:26:00,37.6,10.4,30.05,NNW,332,5.8,13.6,32,0.00,,BKN220,0.00,VWS V13.01,2013-03-01 00:26:00,
2013-02-28 17:31:00,37.6,10.4,30.05,NNW,338,5.4,8.3,32,0.00,,BKN220,0.00,VWS V13.01,2013-03-01 00:31:00,
2013-02-28 17:36:00,37.4,10.9,30.05,WNW,289,8.7,8.7,33,0.00,,BKN220,0.00,VWS V13.01,2013-03-01 00:36:00,
2013-02-28 17:41:00,37.2,10.1,30.05,WNW,288,8.1,14.5,32,0.00,,BKN220,0.00,VWS V13.01,2013-03-01 00:41:00,
2013-02-28 17:46:00,37.0,9.9,30.05,West,276,5.4,8.7,32,0.00,,BKN220,0.00,VWS V13.01,2013-03-01 00:46:00,
2013-02-28 17:51:00,36.9,9.8,30.05,West,270,8.3,11.0,32,0.00,,BKN220,0.00,VWS V13.01,2013-03-01 00:51:00,
2013-02-28 17:56:00,36.9,9.8,30.05,NW,312,5.8,11.0,32,0.00,,BKN220,0.00,VWS V13.01,2013-03-01 00:56:00,
2013-02-28 18:01:00,36.7,9.6,30.05,NW,305,5.8,6.3,32,0.00,,BKN220,0.00,VWS V13.01,2013-03-01 01:01:00,
2013-02-28 18:06:00,36.3,9.3,30.05,NW,311,4.0,12.8,32,0.00,,BKN220,0.00,VWS V13.01,2013-03-01 01:06:00,
2013-02-28 18:11:00,36.1,9.1,30.05,WNW,300,11.4,12.8,32,0.00,,BKN220,0.00,VWS V13.01,2013-03-01 01:11:00,
2013-02-28 18:16:00,36.1,9.1,30.05,West,273,8.1,8.3,32,0.00,,BKN220,0.00,VWS V13.01,2013-03-01 01:16:00,
2013-02-28 18:21:00,36.0,9.0,30.05,WNW,301,8.7,12.8,32,0.00,,BKN220,0.00,VWS V13.01,2013-03-01 01:21:00,
2013-02-28 18:26:00,36.0,9.0,30.05,WNW,299,3.6,12.8,32,0.00,,BKN220,0.00,VWS V13.01,2013-03-01 01:26:00,
2013-02-28 18:31:00,35.8,8.8,30.05,West,269,4.9,10.1,32,0.00,,BKN220,0.00,VWS V13.01,2013-03-01 01:31:00,
2013-02-28 18:36:00,35.6,8.7,30.05,NW,324,5.4,10.1,32,0.00,,BKN220,0.00,VWS V13.01,2013-03-01 01:36:00,
2013-02-28 18:41:00,35.6,8.7,30.05,WNW,295,5.4,10.1,32,0.00,,BKN220,0.00,VWS V13.01,2013-03-01 01:41:00,
2013-02-28 18:46:00,35.4,9.2,30.05,NNW,342,8.7,10.1,33,0.00,,BKN220,0.00,VWS V13.01,2013-03-01 01:46:00,
2013-02-28 18:51:00,35.6,8.7,30.05,West,268,11.0,15.0,32,0.00,,BKN220,0.00,VWS V13.01,2013-03-01 01:51:00,
2013-02-28 18:56:00,35.4,8.5,30.05,WNW,296,8.3,15.0,32,0.00,,BKN220,0.00,VWS V13.01,2013-03-01 01:56:00,
2013-02-28 19:01:00,35.6,8.7,30.05,NNW,346,4.0,12.3,32,0.00,,BKN220,0.00,VWS V13.01,2013-03-01 02:01:00,
2013-02-28 19:06:00,35.4,8.5,30.05,North,357,3.1,12.3,32,0.00,,BKN220,0.00,VWS V13.01,2013-03-01 02:06:00,
2013-02-28 19:11:00,35.4,8.5,30.05,WNW,301,5.8,12.3,32,0.00,,BKN220,0.00,VWS V13.01,2013-03-01 02:11:00,
2013-02-28 19:16:00,35.4,9.2,30.05,WNW,295,10.1,10.1,33,0.00,,BKN220,0.00,VWS V13.01,2013-03-01 02:16:00,
2013-02-28 19:21:00,35.4,9.2,30.05,NW,306,6.3,10.1,33,0.00,,BKN220,0.00,VWS V13.01,2013-03-01 02:21:00,
2013-02-28 19:27:00,35.4,9.2,30.05,WNW,291,3.1,10.1,33,0.00,,BKN220,0.00,VWS V13.01,2013-03-01 02:27:00,
2013-02-28 19:32:00,35.4,9.2,30.05,West,279,6.3,9.2,33,0.00,,BKN220,0.00,VWS V13.01,2013-03-01 02:32:00,
2013-02-28 19:37:00,35.2,9.0,30.05,WNW,298,8.3,9.2,33,0.00,,BKN220,0.00,VWS V13.01,2013-03-01 02:37:00,
2013-02-28 19:42:00,35.2,9.0,30.08,NW,311,3.6,9.2,33,0.00,,BKN220,0.00,VWS V13.01,2013-03-01 02:42:00,
2013-02-28 19:47:00,35.2,9.0,30.08,WNW,292,5.8,8.3,33,0.00,,BKN220,0.00,VWS V13.01,2013-03-01 02:47:00,
2013-02-28 19:52:00,35.2,9.0,30.08,WNW,301,5.8,8.3,33,0.00,,BKN220,0.00,VWS V13.01,2013-03-01 02:52:00,
2013-02-28 19:57:00,35.4,9.2,30.08,WNW,298,4.9,8.3,33,0.00,,BKN220,0.00,VWS V13.01,2013-03-01 02:57:00,
2013-02-28 20:02:00,35.4,9.2,30.08,NW,307,5.8,5.8,33,0.00,,BKN220,0.00,VWS V13.01,2013-03-01 03:02:00,
2013-02-28 20:07:00,35.6,8.7,30.08,WNW,287,6.7,13.2,32,0.00,,BKN220,0.00,VWS V13.01,2013-03-01 03:07:00,
2013-02-28 20:12:00,35.6,8.7,30.08,NW,310,4.9,13.2,32,0.00,,BKN220,0.00,VWS V13.01,2013-03-01 03:12:00,
2013-02-28 20:17:00,35.6,8.7,30.08,West,275,7.2,12.8,32,0.00,,BKN220,0.00,VWS V13.01,2013-03-01 03:17:00,
2013-02-28 20:22:00,35.6,8.7,30.08,WNW,286,5.4,12.8,32,0.00,,BKN220,0.00,VWS V13.01,2013-03-01 03:22:00,
2013-02-28 20:27:00,35.4,9.2,30.08,West,264,5.4,12.8,33,0.00,,BKN220,0.00,VWS V13.01,2013-03-01 03:27:00,
2013-02-28 20:32:00,35.4,9.2,30.08,WNW,296,4.9,9.6,33,0.00,,BKN220,0.00,VWS V13.01,2013-03-01 03:32:00,
2013-02-28 20:37:00,35.4,9.2,30.08,WNW,296,6.3,9.6,33,0.00,,BKN220,0.00,VWS V13.01,2013-03-01 03:37:00,
2013-02-28 20:42:00,35.4,9.2,30.08,West,268,5.4,13.6,33,0.00,,BKN220,0.00,VWS V13.01,2013-03-01 03:42:00,
2013-02-28 20:47:00,35.4,8.5,30.08,WNW,295,8.3,10.1,32,0.00,,BKN220,0.00,VWS V13.01,2013-03-01 03:47:00,
2013-02-28 20:52:00,35.4,9.2,30.08,WNW,301,10.5,10.5,33,0.00,,BKN220,0.00,VWS V13.01,2013-03-01 03:52:00,
2013-02-28 20:57:00,35.4,9.2,30.08,WNW,290,10.5,10.5,33,0.00,,BKN220,0.00,VWS V13.01,2013-03-01 03:57:00,
2013-02-28 21:02:00,35.4,9.2,30.08,NW,320,4.0,8.7,33,0.00,,BKN220,0.00,VWS V13.01,2013-03-01 04:02:00,
2013-02-28 21:07:00,35.4,9.2,30.08,WNW,287,2.7,11.0,33,0.00,,BKN220,0.00,VWS V13.01,2013-03-01 04:07:00,
2013-02-28 21:12:00,35.4,8.5,30.08,NW,324,5.4,12.8,32,0.00,,BKN220,0.00,VWS V13.01,2013-03-01 04:12:00,
2013-02-28 21:17:00,35.2,9.0,30.08,West,279,7.6,10.1,33,0.00,,BKN220,0.00,VWS V13.01,2013-03-01 04:17:00,
2013-02-28 21:22:00,35.4,8.5,30.08,WNW,284,8.3,15.0,32,0.00,,BKN220,0.00,VWS V13.01,2013-03-01 04:22:00,
2013-02-28 21:27:00,35.2,8.4,30.08,SSW,205,6.3,15.0,32,0.00,,BKN220,0.00,VWS V13.01,2013-03-01 04:27:00,
2013-02-28 21:32:00,35.1,8.9,30.08,NW,306,10.1,10.1,33,0.00,,BKN220,0.00,VWS V13.01,2013-03-01 04:32:00,
2013-02-28 21:37:00,34.9,8.7,30.08,NW,314,3.1,10.1,33,0.00,,BKN220,0.00,VWS V13.01,2013-03-01 04:37:00,
2013-02-28 21:42:00,34.7,8.6,30.08,NW,312,5.4,10.1,33,0.00,,BKN220,0.00,VWS V13.01,2013-03-01 04:42:00,
2013-02-28 21:47:00,34.7,8.6,30.08,WNW,303,6.3,7.6,33,0.00,,BKN220,0.00,VWS V13.01,2013-03-01 04:47:00,
2013-02-28 21:52:00,34.7,8.6,30.08,WNW,301,6.3,10.1,33,0.00,,BKN220,0.00,VWS V13.01,2013-03-01 04:52:00,
2013-02-28 21:57:00,34.7,7.9,30.05,WNW,301,7.6,10.1,32,0.00,,BKN220,0.00,VWS V13.01,2013-03-01 04:57:00,
2013-02-28 22:00:00,34.7,8.6,30.05,NW,316,3.1,10.1,33,0.00,,BKN220,0.00,VWS V13.01,2013-03-01 05:00:00,
2013-02-28 22:01:00,34.7,8.6,30.05,WNW,299,3.1,4.9,33,0.00,,BKN220,0.00,VWS V13.01,2013-03-01 05:01:00,
2013-02-28 22:06:00,34.7,8.6,30.05,WNW,299,3.1,8.3,33,0.00,,BKN220,0.00,VWS V13.01,2013-03-01 05:06:00,
2013-02-28 22:11:00,34.3,8.2,30.05,NW,319,4.0,8.3,33,0.00,,BKN220,0.00,VWS V13.01,2013-03-01 05:11:00,
2013-02-28 22:16:00,34.3,8.2,30.08,NW,307,4.0,6.3,33,0.00,,BKN220,0.00,VWS V13.01,2013-03-01 05:16:00,
2013-02-28 22:21:00,34.3,8.2,30.08,NW,314,5.4,8.7,33,0.00,,BKN220,0.00,VWS V13.01,2013-03-01 05:21:00,
2013-02-28 22:26:00,34.3,8.2,30.08,WNW,297,5.8,8.7,33,0.00,,BKN220,0.00,VWS V13.01,2013-03-01 05:26:00,
2013-02-28 22:31:00,34.2,8.1,30.05,WSW,254,2.7,5.8,33,0.00,,BKN220,0.00,VWS V13.01,2013-03-01 05:31:00,
2013-02-28 22:36:00,34.0,7.9,30.05,WSW,252,3.6,6.3,33,0.00,,BKN220,0.00,VWS V13.01,2013-03-01 05:36:00,
2013-02-28 22:41:00,33.8,7.8,30.05,WNW,298,4.0,10.1,33,0.00,,BKN220,0.00,VWS V13.01,2013-03-01 05:41:00,
2013-02-28 22:46:00,34.0,7.9,30.05,NW,307,5.4,5.8,33,0.00,,BKN220,0.00,VWS V13.01,2013-03-01 05:46:00,
2013-02-28 22:51:00,33.8,7.8,30.05,WNW,288,3.6,6.3,33,0.00,,BKN220,0.00,VWS V13.01,2013-03-01 05:51:00,
2013-02-28 22:56:00,33.8,7.8,30.05,NW,304,4.9,6.3,33,0.00,,BKN220,0.00,VWS V13.01,2013-03-01 05:56:00,
2013-02-28 23:01:00,33.6,8.3,30.05,WNW,293,3.1,4.0,34,0.00,,BKN220,0.00,VWS V13.01,2013-03-01 06:01:00,
2013-02-28 23:06:00,33.3,7.9,30.05,NW,308,4.9,4.9,34,0.00,,BKN220,0.00,VWS V13.01,2013-03-01 06:06:00,
2013-02-28 23:11:00,33.3,7.9,30.05,WNW,288,4.0,6.3,34,0.00,,BKN220,0.00,VWS V13.01,2013-03-01 06:11:00,
2013-02-28 23:16:00,33.3,7.9,30.05,WNW,289,5.4,5.8,34,0.00,,BKN220,0.00,VWS V13.01,2013-03-01 06:16:00,
2013-02-28 23:21:00,33.4,7.4,30.05,WNW,292,4.9,13.2,33,0.00,,BKN220,0.00,VWS V13.01,2013-03-01 06:21:00,
2013-02-28 23:26:00,33.3,7.9,30.05,WNW,301,2.7,13.2,34,0.00,,BKN220,0.00,VWS V13.01,2013-03-01 06:26:00,
2013-02-28 23:31:00,33.3,7.3,30.05,NW,309,3.6,3.6,33,0.00,,BKN220,0.00,VWS V13.01,2013-03-01 06:31:00,
2013-02-28 23:36:00,33.3,7.3,30.05,WNW,285,4.9,5.8,33,0.00,,BKN220,0.00,VWS V13.01,2013-03-01 06:36:00,
2013-02-28 23:41:00,33.1,7.8,30.05,WSW,250,0.0,7.2,34,0.00,,BKN220,0.00,VWS V13.01,2013-03-01 06:41:00,
2013-02-28 23:46:00,32.9,7.6,30.05,WSW,250,2.2,2.2,34,0.00,,BKN220,0.00,VWS V13.01,2013-03-01 06:46:00,
2013-02-28 23:51:00,32.5,7.3,30.05,NW,304,2.7,2.7,34,0.00,,BKN220,0.00,VWS V13.01,2013-03-01 06:51:00,
2013-02-28 23:56:00,32.4,7.1,30.05,WNW,294,0.0,6.3,34,0.00,,BKN220,0.00,VWS V13.01,2013-03-01 06:56:00,